MALE AGE GROUP RESULTS
2016 Vulcan Run 10K
Birmingham, AL 11/05/2016 8:00 am
Directed by: Birmingham Track Club, Timed by: Set Up Events

---------------------------------------------------------------------------
TOP 6 OVERALL MALES
---------------------------------------------------------------------------

Place Bib NAME Age Sex CITY/STATE TeamName GunTime GunPace TagTime TagPace
1. 17 KIRUBEL ERASSA 23 M ATLANTA GA 29:31 4:46 29:31 4:46
2. 20 ELKANAH KIBET 33 M FOUNTAIN CO 29:34 4:47 29:34 4:47
3. 19 CALEB HOOVER 24 M GREENVILLE SC 29:45 4:48 29:45 4:48
4. 32 PAUL SUGUT 30 M GRAND PRAIRIE TX 29:49 4:49 29:49 4:49
5. 819 RACHID EZZOUNIOU 34 M MORRISTOWN NJ 29:52 4:49 29:52 4:49
6. 863 HILLARY TOO 37 M MORRISTOWN NJ 30:09 4:52 30:09 4:52
---------------------------------------------------------------------------
TOP 3 MASTERS MALES
---------------------------------------------------------------------------

Place Bib NAME Age Sex CITY/STATE TeamName GunTime GunPace TagTime TagPace
1. 31 ORINTHAL STRIGGLES 40 M COLUMBAI SC 35:30 5:44 35:30 5:44
2. 804 JEFFREY ZICKUS 42 M ATLANTA GA 35:47 5:47 35:46 5:46
3. 34 MATTHEW WHITIS 48 M COLUMBUS GA 36:04 5:49 36:02 5:49
---------------------------------------------------------------------------
TOP 1 GRANDMASTERS MALES
---------------------------------------------------------------------------

Place Bib NAME Age Sex CITY/STATE TeamName GunTime GunPace TagTime TagPace
1. 140 JEFF CLARK 51 M MCCALLA AL 38:23 6:12 38:22 6:12
---------------------------------------------------------------------------
TOP 1 SENIOR GRANDMASTERS MALES
---------------------------------------------------------------------------

Place Bib NAME Age Sex CITY/STATE TeamName GunTime GunPace TagTime TagPace
1. 648 JAMES SHOAF 61 M FULTONDALE AL 50:24 8:08 50:19 8:07
---------------------------------------------------------------------------
MALE AGE GROUP: 1 - 14
---------------------------------------------------------------------------

Place Bib NAME Age Sex CITY/STATE TeamName GunTime GunPace TagTime TagPace
1. 51 JOHN ANDRESS 13 M HOMEWOOD AL RESOLUTE RUNNING COED 45:10 7:18 45:10 7:18
2. 891 SAM CULBERTSON 13 M BIRMINGHAM AL 45:13 7:18 45:09 7:17
3. 370 DAVID KEARLEY 13 M COLUMBIANA AL 56:27 9:07 56:20 9:05
4. 825 LANDON GOFF 12 M BRENTWOOD TN 59:58 9:41 59:51 9:40
5. 889 NOAH CRAWFORD 13 M TRUSSVILLE AL RUNNINGLANE COED 1:02:43 10:07 1:02:36 10:06
---------------------------------------------------------------------------
MALE AGE GROUP: 15 - 19
---------------------------------------------------------------------------

Place Bib NAME Age Sex CITY/STATE TeamName GunTime GunPace TagTime TagPace
1. 476 ETHAN MINES 18 M PANAMA CITY FL 34:33 5:35 34:32 5:35
2. 837 JACOB RUSSELL LISTER 18 M BIRMINGHAM AL CADENCE COED 35:46 5:47 35:45 5:46
3. 527 GRIFFIN OAKS 18 M BIRMINGHAM AL 36:34 5:54 36:30 5:54
4. 200 SEAN DRUMMOND 18 M BIRMINGHAM AL 36:52 5:57 36:39 5:55
5. 423 WILLIAM LOVE 15 M VESTAVIA HILLS AL 39:56 6:27 39:53 6:26
6. 987 GRAHAM BIANCHI 16 M TRUSSVILLE AL 40:27 6:32 40:21 6:31
7. 98 JOSH BOYD 16 M ASHVILLE AL 41:01 6:37 40:58 6:37
8. 897 JOSH DYKES 17 M TRUSSVILLE AL 43:16 6:59 43:06 6:58
9. 785 SPENCER WILSON 19 M PELHAM AL 45:57 7:25 45:49 7:24
10. 982 PARKER TURNER 15 M VESTAVIA AL 48:04 7:46 47:47 7:43
11. 389 JONATHAN KRESSUK 19 M FRANKLIN WI 51:39 8:20 50:58 8:14
12. 899 JACKSON ENGEL 15 M BIRMINGHAM AL 54:15 8:45 53:54 8:42
13. 126 MATTHEW CAMPBELL 19 M MEDWAY MA 57:31 9:17 56:50 9:10
14. 974 MICHAEL VICE 15 M BIRMINGHAM AL 1:10:32 11:23 1:10:18 11:21
15. 675 BEN STANA 16 M BIRMINGHAM AL 1:32:24 14:55 1:31:16 14:44
---------------------------------------------------------------------------
MALE AGE GROUP: 20 - 24
---------------------------------------------------------------------------

Place Bib NAME Age Sex CITY/STATE TeamName GunTime GunPace TagTime TagPace
1. 483 ANDREW MONAGHAN 23 M STARKVILLE MS 31:35 5:06 31:34 5:06
2. 857 PATRICK ROHR 24 M MOBILE AL 31:40 5:07 31:40 5:07
3. 16 MATHEW DUNN 23 M DECATUR AL 32:30 5:15 32:29 5:15
4. 959 JOHN ROHR 20 M SAN JOSE CA 32:35 5:16 32:34 5:16
5. 861 PARKER STEED 20 M BRENTWOOD TN 34:18 5:32 34:18 5:32
6. 942 JACK MILLER 22 M BIRMINGHAM AL 35:15 5:42 35:14 5:41
7. 58 JUSTIN ARSEMENT 24 M BIRMINGHAM AL CAHABA DISTANCE PROJECT 36:02 5:49 36:00 5:49
8. 633 JOHN SCHOR 22 M BIRMINGHAM AL CADENCE COED 40:05 6:28 40:03 6:28
9. 745 JOSHUA WASHINGTON 21 M MERIDIANVILLE AL 43:33 7:02 43:20 7:00
10. 526 JACOB NUTTER 20 M ALGONAC MI 43:50 7:05 43:11 6:58
11. 128 J. WESLEY CAPUTO 24 M MONTGOMERY AL 44:53 7:15 44:33 7:12
12. 870 GUY ABLE 23 M JASPER AL 45:34 7:21 45:18 7:19
13. 261 TANNER GLENN 24 M BIRMINGHAM AL 49:55 8:04 48:57 7:54
14. 401 DREW LANSDELL 24 M BIRMINGHAM AL 50:08 8:06 49:09 7:56
15. 977 LEE WICKS 20 M TUSCALOOSA AL 52:39 8:30 52:27 8:28
16. 74 JACOB BEATTY 24 M BIRMINGHAM AL 52:57 8:33 52:35 8:29
17. 554 ROBERT PEEK 24 M BIRMINGHAM AL 53:03 8:34 52:35 8:29
18. 853 JUSTIN PRITCHARD 24 M BIRMINGHAM AL 54:36 8:49 54:11 8:45
19. 118 BRETT BURBANK 22 M MAYLENE AL 59:13 9:34 58:58 9:31
20. 177 SHAWN CUSTRED 23 M SMITHS STATION AL 1:01:21 9:54 1:00:36 9:47
21. 609 VAN ROGERS 21 M BIRMINGHAM AL 1:03:48 10:18 1:02:44 10:07
22. 1032 BLAKE FITZSIMMONS 23 M ADGER AL 1:13:32 11:52 1:12:47 11:45
23. 83 WILLIAM BISHOP 23 M HUNTSVILLE AL 1:27:18 14:05 1:26:29 13:57
---------------------------------------------------------------------------
MALE AGE GROUP: 25 - 29
---------------------------------------------------------------------------

Place Bib NAME Age Sex CITY/STATE TeamName GunTime GunPace TagTime TagPace
1. 30 TABOR STEVENS 25 M GREENVILLE SC 30:12 4:53 30:12 4:53
2. 18 ADAM FREUDENTHAL 27 M SPARTANBURG SC 30:23 4:55 30:23 4:54
3. 22 RICHARD KIMANI 28 M BIRMINGHAM AL CADENCE COED 32:02 5:10 32:01 5:10
4. 994 DAVID MOKONE 25 M BOWLING GREEN KY 33:48 5:27 33:47 5:27
5. 26 SAMUEL PALMER 28 M BIRMINGHAM AL CAHABA DISTANCE PROJECT 34:01 5:30 34:01 5:30
6. 1093 JOSH BAKER 26 M HOOVER AL 35:11 5:41 35:09 5:41
7. 1011 MATTHEW HAMMERSMITH 29 M GREENVILLE SC 36:00 5:49 35:59 5:49
8. 953 DAVID OLSEN 25 M BIRMINGHAM AL 36:48 5:57 36:47 5:56
9. 521 MICHAEL NIEZGODA 27 M BIRMINGHAM AL CAHABA DISTANCE PROJECT 38:19 6:11 38:17 6:11
10. 590 ALAN REEVES 26 M BIRMINGHAM AL 41:01 6:37 40:58 6:37
11. 860 CLEWIS SMITH 25 M BIRMINGHAM AL 42:47 6:54 42:32 6:52
12. 843 WALTER MCCORD, JR. 25 M BIRMINGHAM AL 42:49 6:55 42:21 6:50
13. 979 NATE WILLIAMS 29 M BIRMINGHAM AL 42:57 6:56 42:38 6:53
14. 393 JOSEPH LAHR 29 M BIRMINGHAM AL 43:44 7:04 43:40 7:03
15. 229 JOHN FORREST 25 M PELHAM AL 44:20 7:09 43:59 7:06
16. 878 RYAN BLY 27 M MC CALLA AL 45:26 7:20 45:24 7:20
17. 587 NICK RAYBURN 28 M BIRMINGHAM AL 45:42 7:23 45:36 7:22
18. 506 WIL MULLINS 28 M GADSDEN AL 46:45 7:33 46:32 7:31
19. 374 JAKE KENNAMER 28 M VESTAVIA HILLS AL 48:00 7:45 47:54 7:44
20. 649 DANIEL SILBERGER 29 M HOMEWOOD AL 50:10 8:06 49:50 8:03
21. 275 BRENDAN GRIFFIN 27 M BIRMINGHAM AL 50:46 8:12 50:38 8:10
22. 394 TYLER LAHTI 26 M BIRMINGHAM AL 52:01 8:24 51:58 8:23
23. 812 MATTHEW BURROW 29 M BIRMINGHAM AL 52:02 8:24 51:00 8:14
24. 670 JUSTIN SMITHERMAN 29 M HELENA AL 52:21 8:27 51:58 8:23
25. 565 CHRIS PINTO 25 M HOMEWOOD AL 52:34 8:29 52:14 8:26
26. 37 CARLOS AGEA 29 M BIRMINGHAM AL 52:44 8:31 52:25 8:28
27. 619 TYLER ROWE 26 M GARDENDALE AL 53:37 8:39 53:28 8:38
28. 862 TREVOR STEPHENS 28 M DENVER CO 53:53 8:42 53:29 8:38
29. 786 ROBERT WINDSOR 27 M BIRMINGHAM AL 54:05 8:44 53:26 8:37
30. 879 GEOFFREY BOSTANY 25 M BIRMINGHAM AL 54:50 8:51 54:45 8:50
31. 170 JUSTIN CROCKER 28 M DORA AL 56:33 9:08 55:27 8:57
32. 800 THOMAS YERBY 25 M HOOVER AL 57:15 9:14 57:02 9:12
33. 935 DEJARVIS LEONARD II 25 M BESSEMER AL 57:18 9:15 56:51 9:11
34. 730 ADAM VISE 27 M BIRMINGHAM AL 58:01 9:22 57:32 9:17
35. 383 NATHAN KLENKE 25 M BIRMINGHAM AL 58:06 9:23 57:07 9:13
36. 264 JONATHAN GOMEZ 29 M BIRMINGHAM AL 58:20 9:25 58:05 9:23
37. 724 PATRICK VANDE LUNE 25 M BIRMINGHAM AL 58:51 9:30 57:44 9:19
38. 1054 ANDREW GREENWALD 25 M BIRMINGHAM AL 59:00 9:31 58:37 9:28
39. 543 LANCE PARMER 29 M BIRMINGHAM AL CABANISS JOHNSTON 59:01 9:32 58:28 9:26
40. 555 JASON PENG 28 M BIRMINGHAM AL 1:00:05 9:42 59:46 9:39
41. 657 JORDAN SMITH 25 M BIRMINGHAM AL 1:01:31 9:56 1:00:33 9:46
42. 748 JAKE WATSON 25 M ADGER AL 1:03:59 10:20 1:03:14 10:12
43. 946 ROB MITCHELL 26 M BIRMINGHAM AL 1:09:35 11:14 1:08:49 11:06
---------------------------------------------------------------------------
MALE AGE GROUP: 30 - 34
---------------------------------------------------------------------------

Place Bib NAME Age Sex CITY/STATE TeamName GunTime GunPace TagTime TagPace
1. 27 JEFF RHODES 30 M BIRMINGHAM AL RUNNINGLANE COED 32:17 5:13 32:16 5:13
2. 12 MICHAEL BROWN 32 M BIRMINGHAM AL RUNNINGLANE COED 34:44 5:37 34:42 5:36
3. 15 GOLDEN COACHMAN 32 M BIRMINGHAM AL 34:53 5:38 34:53 5:38
4. 39 AARON AINSWORTH 34 M BIRMINGHAM AL 36:49 5:57 36:47 5:56
5. 451 GREGORY MCATEE 30 M DURHAM NC 42:30 6:52 42:24 6:51
6. 93 RYAN BONNER 32 M BIRMINGHAM AL 42:35 6:53 42:33 6:52
7. 814 MATTHEW COUCH 31 M MOUNTAIN BROOK AL CABANISS JOHNSTON 44:26 7:10 44:16 7:09
8. 557 CHARLIE PETERS 30 M BIRMINGHAM AL 44:30 7:11 44:20 7:10
9. 768 HAL WHITSITT 33 M VESTAVIA HILLS AL 44:36 7:12 44:28 7:11
10. 902 YU FENG 32 M STILLWATER OK 44:43 7:13 44:35 7:12
11. 842 LEE MATHIS 30 M HOOVER AL 45:21 7:19 44:56 7:15
12. 421 EDUARDO LOPEZ ANTA 33 M MOUNTAIN BROOK AL 45:31 7:21 45:26 7:20
13. 345 GREGORY IKNER 31 M BIRMINGHAM AL 45:53 7:24 45:33 7:21
14. 470 MATTHEW MICHALKE 33 M ODENVILLE AL 46:09 7:27 46:03 7:26
15. 379 RYAN KIRBY 30 M BIRMINGHAM AL 47:52 7:44 47:45 7:42
16. 507 JORGE MUNOZ MOYA 34 M BIRMINGHAM AL 48:13 7:47 47:56 7:44
17. 103 HUNTER BRIDWELL 33 M BESSEMER AL 48:27 7:49 48:15 7:47
18. 299 JONATHAN HAY 33 M BIRMINGHAM AL 49:21 7:58 48:49 7:53
19. 205 JOHN EASON 34 M BIRMINGHAM AL 50:16 8:07 49:57 8:04
20. 336 PHILIP HOUSLER 31 M BIRMINGHAM AL 51:04 8:15 50:33 8:10
21. 1099 SHANNON SHORR 31 M BIRMINGHAM AL 51:20 8:17 50:47 8:12
22. 1051 DAVID SCHROLL 33 M HOMEWOOD AL 51:53 8:22 51:10 8:16
23. 224 BLAKE FLYNT 31 M CULLMAN AL 52:19 8:27 51:38 8:20
24. 292 ROBERT HARRIS 34 M LEEDS AL 52:21 8:27 51:38 8:20
25. 517 THE MIGHTY NERDNOF 31 M BIRMINGHAM AL 53:17 8:36 53:17 8:36
26. 237 RYAN FRIERY 34 M VESTAVIA HILLS AL 53:25 8:37 53:00 8:33
27. 593 JOSE REINA 32 M BIRMINGHAM AL 53:30 8:38 53:11 8:35
28. 48 REYNOLDS ANDERSON 33 M BIRMINGHAM AL 54:38 8:49 54:09 8:45
29. 493 DAVID MORRIS 33 M BIRMINGHAM AL 55:11 8:54 55:04 8:53
30. 414 PATRICK LEWIS 33 M HOOVER AL 55:12 8:55 54:23 8:47
31. 729 RODRIGO VELASCO SANCHO 32 M BIRMINGHAM AL 55:19 8:56 55:00 8:53
32. 926 LUKE JONES 31 M BIRMINGHAM AL 56:35 9:08 56:02 9:03
33. 427 SIMMONS LYONS 34 M MAYLENE AL 58:10 9:23 57:09 9:13
34. 978 JORDAN WILKES 30 M BIRMINGHAM AL 58:22 9:25 57:50 9:20
35. 356 BRIAN JOHNSON 31 M BIRMINGHAM AL 58:23 9:25 57:51 9:20
36. 403 JOSEPH LAWHORN 34 M HOOVER AL 58:37 9:28 58:00 9:22
37. 728 JASE VANN 33 M BIRMINGHAM AL 58:42 9:28 58:10 9:23
38. 845 JAMES MOODY 31 M MOODY AL 1:00:14 9:43 59:25 9:35
39. 949 NICK NELSON 32 M BIRMINGHAM AL 1:01:17 9:53 1:00:44 9:48
40. 1064 GAVIN BLAKELEY 31 M MOUNTAIN BROOK AL 1:02:03 10:01 1:01:27 9:55
41. 577 JOHN PRESTRIDGE 33 M ALABASTER AL 1:02:22 10:04 1:01:42 9:57
42. 992 PATRICK DRISCOLL 31 M ALABASTER AL 1:03:15 10:13 1:02:02 10:01
43. 752 KEN WAYMAN 33 M AUBURN AL 1:03:53 10:19 1:03:01 10:10
44. 905 RYAN FORDHAM 30 M HUNTSVILLE AL 1:04:10 10:21 1:03:13 10:12
45. 1033 MATTHEW MCKENZIE 33 M HELENA AL 1:04:25 10:24 1:03:51 10:18
46. 865 DANIEL VAN HAUEN 34 M MOUNTAIN BROOK AL 1:05:11 10:31 1:04:29 10:24
47. 99 ROBERT BOYLAN 32 M BIRMINGHAM AL 1:06:30 10:44 1:06:03 10:40
48. 455 CAL MCCLESKEY 32 M BIRMINGHAM AL 1:12:42 11:44 1:12:23 11:41
49. 742 MATT WARNAT 31 M BIRMINGHAM AL 1:15:27 12:11 1:14:47 12:04
50. 668 JUSTIN SMITH 34 M BIRMINGHAM AL 1:17:41 12:32 1:16:37 12:22
---------------------------------------------------------------------------
MALE AGE GROUP: 35 - 39
---------------------------------------------------------------------------

Place Bib NAME Age Sex CITY/STATE TeamName GunTime GunPace TagTime TagPace
1. 553 BLAKE PEARSON 37 M HOMEWOOD AL RESOLUTE RUNNING COED 37:09 6:00 37:07 6:00
2. 60 BRIAN ATKINS 35 M HOMEWOOD AL 37:43 6:05 37:40 6:05
3. 731 JIRI VLACH 37 M BIRMINGHAM AL 39:00 6:18 38:57 6:17
4. 204 DANIEL DYE 39 M BIRMINGHAM AL 41:13 6:39 40:39 6:34
5. 384 DANNER KLINE 38 M BIRMINGHAM AL 41:20 6:40 41:19 6:40
6. 849 CHARLIE PARKS 36 M BIRMINGHAM AL 41:22 6:41 41:17 6:40
7. 86 BRANDON BLACK 37 M BIRMINGHAM AL 41:25 6:41 41:23 6:41
8. 614 BILLY ROSE 35 M BIRMINGHAM AL RUNNINGLANE COED 41:30 6:42 41:26 6:41
9. 165 DAMON COX 38 M HOMEWOOD AL 41:44 6:44 41:42 6:44
10. 706 SHAUN TILLERY 36 M LEEDS AL 41:56 6:46 41:52 6:46
11. 62 EVAN BAGGETT 36 M BIRMINGHAM AL 42:24 6:51 42:16 6:49
12. 1063 WILLIAM SASSER 39 M HOMEWOOD AL 42:47 6:54 42:39 6:53
13. 178 NATHANIEL DARVILLE 39 M BIRMINGHAM AL 42:52 6:55 42:47 6:54
14. 627 NATHAN SATURDAY 38 M BIRMINGHAM AL 43:18 6:59 43:16 6:59
15. 629 PAUL SCALICI 36 M BIRMINGHAM AL 43:40 7:03 43:34 7:02
16. 1084 JASON MURRAY 35 M HOOVER AL 45:11 7:18 45:04 7:17
17. 747 JOSH WATKINS 35 M TRUSSVILLE AL 45:54 7:25 45:41 7:22
18. 758 ADAM WENDE 38 M VESTAVIA HILLS AL 46:09 7:27 45:41 7:23
19. 179 HARRY DAVID 36 M BIRMINGHAM AL 46:17 7:28 46:10 7:27
20. 1096 PATRICK BRANNON 35 M BIRMINGHAM AL 46:35 7:31 46:30 7:30
21. 139 DAN CHU 36 M VESTAVIA HILLS AL 46:58 7:35 46:29 7:30
22. 1047 ADAM WINGER 35 M HOMEWOOD AL 47:38 7:41 47:18 7:38
23. 919 SCOTT HOWARD 35 M BIRMINGHAM AL 47:51 7:43 47:48 7:43
24. 838 LANDON LITTY 38 M BIRMINGHAM AL 48:01 7:45 47:44 7:42
25. 775 PETER WILKIN 39 M TRUSSVILLE AL 48:40 7:51 48:33 7:50
26. 1071 TOMOKUNI HASEGAWA 38 M OSAKA 49:02 7:55 48:33 7:50
27. 398 JEFF LANCASTER 36 M BIRMINGHAM AL 49:26 7:59 49:00 7:55
28. 251 CHAD GAY 39 M BIRMINGHAM AL 49:33 8:00 49:06 7:56
29. 76 JON BECKER 35 M BIRMINGHAM AL 50:08 8:06 49:43 8:01
30. 219 PETER FALKNER 35 M BIRMINGHAM AL 50:10 8:06 49:42 8:01
31. 713 NICK TOTH 36 M BIRMINGHAM AL 50:15 8:07 49:59 8:04
32. 1065 RYAN CANTOR 36 M BIRMINGHAM AL 50:25 8:08 50:17 8:07
33. 436 PATRICK MARTIN 39 M BIRMINGHAM AL 50:26 8:08 50:07 8:05
34. 539 CHAD PALMORE 35 M BIRMINGHAM AL 50:33 8:10 50:21 8:08
35. 602 JOSE RIVERA 35 M BIRMINGHAM AL 51:14 8:16 50:55 8:13
36. 1055 MATTHEW WEATHERS 38 M BIRMINGHAM AL 51:25 8:18 51:02 8:14
37. 77 JOEY BENTLEY 35 M ANNISTON AL 51:48 8:22 51:06 8:15
38. 612 JASON ROSE 39 M HOOVER AL 51:58 8:23 51:19 8:17
39. 592 ROBERT REICH 38 M BIRMINGHAM AL 52:14 8:26 51:29 8:19
40. 912 CODY GRISSOM 35 M JASPER AL 52:15 8:26 51:44 8:21
41. 644 LUKE SHANNON 37 M BIRMINGHAM AL 52:20 8:27 51:35 8:20
42. 951 SHANE NORRIS 38 M QUINTON AL 52:46 8:31 52:15 8:26
43. 404 BRIAN LAWSON 36 M TRUSSVILLE AL 53:40 8:40 53:24 8:37
44. 132 ANDREW CASE 35 M BIRMINGHAM AL 53:54 8:42 53:00 8:33
45. 376 ALI KILIC 39 M BIRMINGHAM AL 54:21 8:46 54:04 8:44
46. 1005 KEVIN RUGGIERO 36 M BIRMINGHAM AL 54:25 8:47 54:01 8:43
47. 1070 ANIL CHADHA 38 M HOMEWOOD AL 55:04 8:53 54:32 8:48
48. 40 CHRISTOPHER ALBANY 36 M BIRMINGHAM AL 55:06 8:54 55:00 8:53
49. 749 CHRIS WATSON 38 M TRUSSVILLE AL 55:10 8:54 54:36 8:49
50. 273 JAMES GREEN 39 M BIRMINGHAM AL 55:37 8:59 54:35 8:49
51. 426 CARLOS LUZURIAGA 37 M HOMEWOOD AL 55:41 8:59 55:24 8:57
52. 815 WILL DAVIS 35 M BIRMINGHAM AL 55:47 9:00 54:54 8:52
53. 1056 MARK MOLSON 35 M BIRMINGHAM AL 55:50 9:01 55:29 8:57
54. 743 KYLE WARRAM 37 M HELENA AL 55:55 9:01 55:23 8:56
55. 940 TREY MCCLURE 39 M BIRMINGHAM AL 56:17 9:05 56:02 9:03
56. 268 VINCENT GRAFFEO 38 M BIRMINGHAM AL 56:30 9:07 55:36 8:58
57. 1052 JASON DUNCAN 36 M BIRMINGHAM AL 56:48 9:10 56:30 9:07
58. 583 JAMEY RAMSEY 35 M TRUSSVILLE AL 57:20 9:15 56:34 9:08
59. 80 SURYA BHATT 39 M BIRMINGHAM AL 57:24 9:16 57:03 9:13
60. 371 STEPHEN KEARLEY 38 M COLUMBIANA AL 57:25 9:16 57:12 9:14
61. 236 DEAN FRIERY 39 M WEST MONROE LA 58:08 9:23 57:43 9:19
62. 298 MATT HAUBER 36 M OOLTEWAH TN 58:34 9:27 57:19 9:15
63. 626 JOSE SANCHEZ MARQUEZ 36 M BIRMINGHAM AL 58:41 9:28 58:22 9:25
64. 807 RUSS BAILEY 39 M IRONDALE AL 58:54 9:30 58:27 9:26
65. 1073 KEVIN BURKE 39 M BIRMINGHAM AL 59:58 9:41 59:27 9:36
66. 213 PAUL ESTEP 35 M MC CALLA AL 1:00:39 9:47 1:00:08 9:42
67. 581 ASH QUAKENBUSH 37 M CHELSEA AL 1:00:50 9:49 1:00:01 9:41
68. 308 ARTHUR HERBERT 36 M MONTEVALLO AL 1:01:21 9:54 1:01:21 9:54
69. 705 BRANDON THURBER 35 M BIRMINGHAM AL 1:01:40 9:57 1:00:45 9:48
70. 696 NEIMA TAVAKOLI 37 M VESTAVIA AL 1:04:09 10:21 1:03:06 10:11
71. 78 JEAN-PHILIPPE BERTHOLD 37 M HOOVER AL 1:04:13 10:22 1:03:46 10:18
72. 1004 JAN EWERS 39 M BIRMINGHAM AL 1:07:30 10:54 1:07:22 10:52
73. 495 MATT MORRIS 39 M HELENA AL 1:07:41 10:55 1:07:30 10:54
74. 353 PAUL JERNIGAN 39 M HOOVER AL 1:08:17 11:01 1:07:20 10:52
75. 628 STEPHEN SAVINCKI 37 M HELENA AL 1:08:19 11:02 1:07:18 10:52
76. 1091 CHRIS WANG 35 M HOOVER AL 1:13:09 11:48 1:11:57 11:37
77. 457 HORACE MCCOY JR 38 M BIRMINGHAM AL 1:24:59 13:43 1:24:59 13:43
---------------------------------------------------------------------------
MALE AGE GROUP: 40 - 44
---------------------------------------------------------------------------

Place Bib NAME Age Sex CITY/STATE TeamName GunTime GunPace TagTime TagPace
1. 642 DANNY SHAFFIELD 43 M VESTAVIA HILLS AL 39:24 6:22 39:22 6:21
2. 391 LOREN KULP 44 M ALABASTER AL CADENCE MEN 41:27 6:42 41:24 6:41
3. 186 JOSEPH DEASE 40 M VESTAVIA HILLS AL 41:56 6:46 41:53 6:46
4. 440 CRAIG MATHEWS 44 M ODENVILLE AL 42:51 6:55 42:49 6:55
5. 498 ALEX MORROW 44 M BIRMINGHAM AL RESOLUTE RUNNING COED 43:13 6:59 42:53 6:55
6. 468 SIMON MCVEY 44 M BIRMINGHAM AL 43:52 7:05 43:48 7:04
7. 1021 ROGER WOOD 41 M BIRMINGHAM AL 44:12 7:08 44:05 7:07
8. 434 TODD MAPLE 44 M BIRMINGHAM AL 44:37 7:12 44:28 7:11
9. 880 MARC BROMSTAD 43 M BIRMINGHAM AL 45:20 7:19 45:14 7:18
10. 591 TREY REICH 40 M BIRMINGHAM AL 45:35 7:21 44:49 7:14
11. 1080 SCOTT SETTLE 40 M BIRMINGHAM AL 47:13 7:37 47:07 7:36
12. 416 ADAM LINDSEY 41 M LEEDS AL RUNNINGLANE COED 47:19 7:38 47:09 7:37
13. 1048 THOMAS WATSON 41 M VESTAVIA HILLS AL 47:33 7:41 47:24 7:39
14. 714 STEVEN TROTTER 42 M HOOVER AL 48:04 7:46 47:55 7:44
15. 141 ROY CLARKSON 40 M TRUSSVILLE AL 48:21 7:48 48:12 7:47
16. 149 NATHAN COLLINS 40 M HOOVER AL 48:30 7:50 48:26 7:49
17. 615 PAUL ROSS 44 M VESTAVIA AL 49:00 7:55 48:18 7:48
18. 890 JOSH CULBERTSON 42 M BIRMINGHAM AL 49:08 7:56 49:02 7:55
19. 494 JASON MORRIS 44 M VESTAVIA AL 49:15 7:57 49:01 7:55
20. 192 DREW DICKERSON 43 M NORTHPORT AL 49:22 7:58 49:00 7:55
21. 249 JASON GARWOOD 40 M BIRMINGHAM AL 49:43 8:02 49:23 7:58
22. 1023 RUSTY HUGHES 42 M BIRMINGHAM AL 50:01 8:04 49:15 7:57
23. 63 CHRISTOPHER BAGGETT 42 M BESSEMER AL RUNNINGLANE COED 50:08 8:06 49:31 8:00
24. 934 SCOTT LEE 44 M HOOVER AL 50:28 8:09 49:46 8:02
25. 196 EVAN DORMAN 41 M BIRMINGHAM AL 52:02 8:24 51:27 8:18
26. 131 BRAD CARTER 42 M BIRMINGHAM AL 52:12 8:26 51:22 8:18
27. 501 MIKE MOSES 42 M BIRMINGHAM AL 52:17 8:26 51:41 8:21
28. 35 BRYANT ADAMS 41 M WARRIOR AL 52:34 8:29 51:32 8:19
29. 215 BENJAMIN ETHERIEDGE 40 M WARRIOR AL 53:22 8:37 52:40 8:30
30. 1076 MICHAEL DAVIS 44 M CUMMING GA 53:34 8:39 53:14 8:36
31. 1036 ANDREW MCKINNON 42 M BIRMINGHAM AL 53:36 8:39 52:54 8:32
32. 413 CHRIS LENOIR 42 M CALERA AL 54:42 8:50 54:06 8:44
33. 725 WARREN VANDENTOP 44 M BIRMINGHAM AL 54:56 8:52 54:26 8:47
34. 124 CHRIS CALLAHAN 40 M BIRMINGHAM AL 55:29 8:57 54:51 8:51
35. 817 SIGIFREDO DURAN 42 M PINSON AL 55:36 8:58 54:52 8:51
36. 968 CEDRICK THOMAS 42 M BIRMINGHAM AL 55:57 9:02 54:56 8:52
37. 688 CHAD SUMMERS 44 M TRUSSVILLE AL 56:15 9:05 55:39 8:59
38. 148 BRANDON COLLINS 42 M CALERA AL 56:41 9:09 56:17 9:05
39. 1066 CHRIS HOLMES 44 M BIRMINGHAM AL 57:50 9:20 56:50 9:10
40. 282 BRYAN HANCOCK 44 M BIRMINGHAM AL 57:50 9:20 57:26 9:16
41. 327 CHRIS HOOKS 41 M BIRMINGHAM AL 58:25 9:26 57:44 9:19
42. 698 JEFF THOMAS 42 M LEEDS AL 59:25 9:35 58:44 9:29
43. 532 CARLOS ORIHUELA 43 M HOMEWOOD AL 59:35 9:37 58:56 9:31
44. 841 ALLEN MARCHINO 42 M BIRMINGHAM AL 59:46 9:39 58:59 9:31
45. 600 ANDREW RICKLES 40 M PINSON AL 59:49 9:39 59:05 9:32
46. 558 BRANDON PETTIT 44 M BIRMINGHAM AL 1:00:17 9:44 59:51 9:40
47. 266 K GORDON 40 M BIRMINGHAM AL 1:00:20 9:44 1:00:06 9:42
48. 459 WILLIE MCDANIEL 43 M HOOVER AL CADENCE MEN 1:00:29 9:46 1:00:13 9:43
49. 990 ROBBY WATSON 43 M BIRMINGHAM AL 1:00:49 9:49 1:00:14 9:43
50. 444 KEVIN MAUGHAN 41 M PELHAM AL CABANISS JOHNSTON 1:01:06 9:52 1:00:33 9:46
51. 73 BUTCH BEACH 41 M MOUNTAIN BROOK AL 1:01:13 9:53 1:00:29 9:46
52. 759 FRANK WENNBERG 41 M WINFIELD AL 1:01:19 9:54 1:00:41 9:48
53. 630 DOUG SCARBOROUGH 40 M BIRMINGHAM AL 1:01:33 9:56 1:00:58 9:50
54. 1015 GRANT MUSGROVE 42 M VESTAVIA HILLS AL 1:02:28 10:05 1:02:00 10:00
55. 438 PAUL MATHEWS 42 M BIRMINGHAM AL 1:02:28 10:05 1:01:16 9:53
56. 260 JEFFREY GLEASON 44 M BIRMINGHAM AL 1:04:28 10:24 1:03:26 10:14
57. 474 ANDREW MILLER 44 M BIRMINGHAM AL 1:04:50 10:28 1:04:15 10:22
58. 387 BRUCE KOLLING 44 M BIRMINGHAM AL 1:04:56 10:29 1:03:49 10:18
59. 914 CHAD HANSON 43 M TRUSSVILLE AL 1:05:48 10:37 1:05:08 10:31
60. 206 TIM EASTERLING 43 M PINSON AL 1:05:58 10:39 1:05:04 10:30
61. 90 TOMMY BOGER 41 M GARDENDALE AL 1:06:06 10:40 1:05:02 10:30
62. 965 GLENN STEWART 42 M BIRMINGHAM AL 1:06:41 10:46 1:05:48 10:37
63. 487 JOHN MOORE 44 M GADSDEN AL 1:09:28 11:13 1:09:01 11:08
64. 695 DAVID TAVAKOLI 43 M ATLANTA GA 1:12:37 11:43 1:11:35 11:33
65. 1077 VERN SWINDELL 44 M GARDENDALE AL 1:13:10 11:48 1:12:49 11:45
66. 472 BILL MILLER 41 M CHELSEA AL 1:30:29 14:36 1:29:24 14:26
---------------------------------------------------------------------------
MALE AGE GROUP: 45 - 49
---------------------------------------------------------------------------

Place Bib NAME Age Sex CITY/STATE TeamName GunTime GunPace TagTime TagPace
1. 687 ERIC SULLIVAN 48 M BIRMINGHAM AL 39:06 6:19 39:04 6:18
2. 769 TREY WHITT 45 M BIRMINGHAM AL 40:18 6:30 40:09 6:29
3. 188 DAVID DENARD 48 M TRUSSVILLE AL 40:43 6:35 40:39 6:34
4. 1029 RUSSELL WILLIAMS 47 M BIRMINGHAM AL 41:39 6:44 41:37 6:43
5. 297 CHAD HATHORNE 48 M HOMEWOOD AL 43:08 6:58 43:04 6:57
6. 888 RENATO CORBETTA 47 M BIRMINGHAM AL 44:10 7:08 43:58 7:06
7. 917 MATT HOOD 47 M IRVINE CA 44:24 7:10 44:21 7:10
8. 813 CHRISTOPHER CAREY 46 M BIRMINGHAM AL 44:51 7:14 44:41 7:13
9. 184 RON DEAN 47 M BIRMINGHAM AL 45:30 7:21 45:24 7:20
10. 169 SCOTT CRAWFORD 48 M TRUSSVILLE AL RUNNINGLANE COED 45:33 7:21 45:26 7:20
11. 272 GREG GREAVES 47 M BIRMINGHAM AL 46:05 7:26 45:58 7:25
12. 1022 DAVID MCKEE 48 M PINSON AL 46:55 7:34 46:18 7:28
13. 1058 BROOKS VAUGHAN 45 M BIRMINGHAM AL 47:22 7:39 47:13 7:37
14. 1069 CHUCK RADER 46 M HOOVER AL 47:35 7:41 47:21 7:39
15. 658 JASON SMITH 47 M BIRMINGHAM AL 47:52 7:44 47:49 7:43
16. 1025 TAYLOR DONARD 46 M TRUSSVILLE AL 48:23 7:49 48:17 7:48
17. 1049 JEFF GLAZE 46 M BIRMINGHAM AL 48:38 7:51 48:27 7:49
18. 697 JOHN THETFORD 46 M TUSCALOOSA AL 49:30 7:59 49:01 7:55
19. 666 ERIC SMITH 47 M HOOVER AL 49:41 8:01 49:36 8:00
20. 624 JOEY SAFFOLD 47 M BIRMINGHAM AL 50:32 8:09 50:18 8:07
21. 332 KELLY HORN 48 M FULTONDALE AL 50:46 8:12 50:31 8:09
22. 985 DAVID CONDON 47 M HOMEWOOD AL 51:24 8:18 51:04 8:15
23. 52 KEITH ANDRESS 49 M HOMEWOOD AL RELOLUTE RUNNING COED 51:59 8:23 51:38 8:20
24. 908 STEVE FOY 49 M BIRMINGHAM AL 52:06 8:25 51:44 8:21
25. 844 JEFFREY MITCHELL 47 M BIRMINGHAM AL 52:13 8:26 52:00 8:24
26. 945 LANIER MILLSAP 45 M BIRMINGHAM AL 52:30 8:28 52:21 8:27
27. 278 SATYA GULLAPALLI 45 M HOOVER AL 53:44 8:40 53:32 8:38
28. 718 NEILL TYLER 47 M PELHAM AL 53:45 8:41 53:29 8:38
29. 1085 TIM HARRIS 46 M HOOVER AL 54:10 8:45 53:27 8:38
30. 898 CHRISTOPHER ENGEL 47 M BIRMINGHAM AL 54:15 8:45 54:15 8:45
31. 422 ANDREW LOVE 49 M VESTAVIA HILLS AL 54:26 8:47 54:21 8:46
32. 240 JEFFREY FUQUA 49 M BIRMINGHAM AL 54:42 8:50 53:59 8:43
33. 620 FREDDY RUBIO 45 M BIRMINGHAM AL 54:56 8:52 54:45 8:50
34. 1017 JOSEPH KEENER 45 M BIRMINGHAM AL 55:56 9:02 55:13 8:55
35. 1041 BILL JACKA JR 49 M HOMEWOOD AL 56:11 9:04 55:24 8:57
36. 87 DYLAN BLACK 48 M BIRMINGHAM AL 56:20 9:06 56:03 9:03
37. 375 GREGORY KENNEDY 46 M BIRMINGHAM AL 56:26 9:07 55:57 9:02
38. 496 PHIL MORRIS 45 M COLUMBIANA AL 56:28 9:07 55:49 9:01
39. 540 SUKESH PARAMESWARAN 47 M MADISON AL 56:31 9:07 56:14 9:05
40. 305 DOUGLAS HENSON 47 M BIRMINGHAM AL 57:02 9:12 56:23 9:06
41. 607 ROD ROBINSON 49 M BIRMINGHAM AL RESOLUTE RUNNING COED 57:04 9:13 56:37 9:08
42. 661 KYLE SMITH 47 M CLANTON AL 57:14 9:14 56:37 9:08
43. 855 DAVID REDDEN 47 M BIRMINGHAM AL 58:27 9:26 57:20 9:15
44. 484 STEPHEN MONTI 47 M HOOVER AL 58:28 9:26 57:47 9:20
45. 871 CHAD ANDERSON 45 M LEEDS AL 59:25 9:35 58:45 9:29
46. 1044 CHRIS BROWN 49 M VESTAVIA AL 59:53 9:40 58:49 9:30
47. 279 JIM HAGER 45 M LEEDS AL 59:53 9:40 59:31 9:36
48. 929 TERRY KNIGHT 45 M BIRMINGHAM AL 59:56 9:40 59:15 9:34
49. 1075 BROOKE HOLBERT 45 M VESTAVIA HILLS AL 1:00:05 9:42 59:24 9:35
50. 999 MIKE MORRIS 49 M VESTAVIA HILLS AL 1:00:17 9:44 59:38 9:37
51. 931 MATTHEW LEDUKE 45 M GUIN AL 1:00:34 9:47 59:20 9:35
52. 892 DAVID CULLIGHAN 47 M BIRMINGHAM AL 1:01:13 9:53 1:00:29 9:46
53. 190 ADAM DESCHAMPS 46 M MOODY AL 1:04:34 10:25 1:03:45 10:17
54. 491 BRENTON MORRIS 45 M HOOVER AL 1:06:21 10:42 1:05:21 10:33
55. 685 JOHN STREIFF 46 M BIRMINGHAM AL 1:07:34 10:54 1:07:04 10:49
56. 1038 PARKER DOBBINS 45 M BIRMINGHAM AL 1:07:34 10:54 1:06:28 10:44
57. 223 MITCH FLOYD 46 M ALBERTVILLE AL 1:07:40 10:55 1:06:27 10:44
58. 377 BRYAN KING 46 M HOMEWOOD AL 1:10:49 11:26 1:09:40 11:15
59. 1068 ALAN PINION 46 M TRUSSVILLE AL 1:10:58 11:27 1:10:14 11:20
60. 464 RYAN MCLELLAN 46 M PELHAM AL 1:11:42 11:34 1:10:42 11:25
61. 723 CLARK UNDERBAKKE 46 M BIRMINGHAM AL 1:12:34 11:43 1:11:45 11:35
62. 869 DARRIN ABERNATHY 49 M HOOVER AL RESOLUTE RUNNING COED 1:20:33 13:00 1:19:32 12:50
63. 258 DARRELL GIBSON 45 M HOMEWOOD AL 1:20:33 13:00 1:19:58 12:54
64. 461 ROBERT MCELROY 46 M BIRMINGHAM AL 1:32:25 14:55 1:31:23 14:45
---------------------------------------------------------------------------
MALE AGE GROUP: 50 - 54
---------------------------------------------------------------------------

Place Bib NAME Age Sex CITY/STATE TeamName GunTime GunPace TagTime TagPace
1. 634 MIKE SCHOR 53 M BIRMINGHAM AL CADENCE MEN 40:56 6:37 40:52 6:36
2. 803 CHRIS ZENKER 52 M BIRMINGHAM AL 42:09 6:48 42:05 6:48
3. 329 JIM HOOVER 51 M BIRMINGHAM AL 43:58 7:06 43:48 7:04
4. 806 STEVE ARCHER 50 M MUSCLE SHOALS AL 43:59 7:06 43:55 7:05
5. 570 DAVID PLANTE 54 M BIRMINGHAM AL 44:18 7:09 44:14 7:08
6. 467 MARK MCTUNE 51 M HELENA AL 44:29 7:11 44:25 7:10
7. 195 STAN DORAN 50 M PELHAM AL 44:30 7:11 44:26 7:10
8. 220 CHRIS FARRINGTON 53 M BIRMINGHAM AL 45:01 7:16 44:56 7:15
9. 1074 MITSUO TSUKAMOTO 51 M DECATUR AL 45:30 7:21 45:01 7:16
10. 168 ALLEN CRAWFORD 50 M SPRINGVILLE AL 45:36 7:22 45:34 7:21
11. 792 RAY WORKMAN 53 M BIRMINGHAM AL 45:44 7:23 45:40 7:22
12. 640 TRAVIS SELF 52 M BIRMINGHAM AL 46:21 7:29 46:12 7:27
13. 164 JAMES COUNSELL 54 M PRATTVILLE AL 46:27 7:30 46:19 7:29
14. 69 FRANK BARRY 53 M BIRMINGHAM AL 47:10 7:37 47:02 7:35
15. 983 LARRY MCQUISTON 50 M PHENIX CITY AL 47:17 7:38 47:07 7:36
16. 462 PHILIP MCKEE 53 M PRATTVILLE AL 47:28 7:40 47:20 7:38
17. 458 CARY MCDANIEL 50 M PRATTVILLE AL 48:11 7:47 48:02 7:45
18. 834 SCOTT KEY 53 M JACKSONVILLE AL 49:14 7:57 48:32 7:50
19. 253 MICHAEL GEER 51 M BIRMINGHAM AL 50:11 8:06 50:04 8:05
20. 586 JEFF RAY 52 M BIRMINGHAM AL 50:18 8:07 50:12 8:06
21. 765 PHILLIP WHITE 53 M INDIAN SPRINGS AL 50:50 8:12 50:31 8:09
22. 744 DAVID WASHINGTON 50 M MERIDIANVILLE AL 51:00 8:14 50:49 8:12
23. 239 ROBERT FUNK 53 M PELL CITY AL 51:12 8:16 50:47 8:12
24. 425 TIMOTHY LUPINACCI 50 M BIRMINGHAM AL 51:27 8:18 51:08 8:15
25. 684 JOHN STRAKA 51 M LEEDS AL 51:30 8:19 50:47 8:12
26. 396 MICHAEL LAMBERT 50 M CHELSEA AL 52:13 8:26 51:48 8:22
27. 683 GREG STONE 53 M OXFORD AL 52:50 8:32 52:07 8:25
28. 1087 KEITH WOODS 52 M VESTAVIA HILLS AL 53:47 8:41 53:23 8:37
29. 1006 RONALD OLSEN 54 M MADISON AL 53:59 8:43 53:44 8:40
30. 420 DAVID LOPER 52 M BIRMINGHAM AL 54:06 8:44 53:36 8:39
31. 886 ALAN CHRISTIAN 50 M HOOVER AL 54:12 8:45 54:04 8:44
32. 911 WILLIAM GREENWALD 50 M BIRMINGHAM AL 54:24 8:47 53:51 8:42
33. 616 JOEY ROSSER 52 M HOOVER AL 54:26 8:47 53:29 8:38
34. 310 JOHN HIGH 52 M HOMEWOOD AL 54:38 8:49 54:10 8:45
35. 1008 RYAN WHITLEY 54 M PINSON AL 55:01 8:53 54:30 8:48
36. 1078 SCOTT TURNER 50 M BIRMINGHAM AL 55:04 8:53 54:41 8:50
37. 884 OCTAVIO CAVIEDES 54 M VESTAVIA HILLS AL 55:19 8:56 54:44 8:50
38. 549 ROBERT PAUL 54 M LOUISVILLE MS 56:08 9:04 55:38 8:59
39. 755 LANCE WEEKS 52 M MOUNT OLIVE AL 56:46 9:10 55:42 9:00
40. 151 CHRIS COLPACK 50 M BIRMINGHAM AL 57:20 9:15 56:34 9:08
41. 1034 SCOTT PADGITT 51 M BIRMINGHAM AL 57:50 9:20 56:50 9:10
42. 923 KEN HYATT 53 M BIRMINGHAM AL 59:17 9:34 58:06 9:23
43. 480 SCOTT MISSILDINE 54 M DECATUR AL 59:38 9:38 59:16 9:34
44. 835 BARRY KEY 52 M WILSONVILLE AL 59:44 9:39 59:00 9:31
45. 435 ANDREW MARLIN 51 M BIRMINGHAM AL 59:53 9:40 59:01 9:32
46. 303 VICTOR HENKEN 54 M BIRMINGHAM AL 1:00:55 9:50 1:00:39 9:47
47. 1095 RANDY ALDRICH 52 M TRUSSVILLE AL 1:01:33 9:56 1:00:47 9:49
48. 937 JOHN LOSSIE 54 M PELHAM AL 1:01:39 9:57 1:00:53 9:50
49. 829 PAUL HOFFMAN 52 M BIRMINGHAM AL 1:01:41 9:57 1:01:05 9:51
50. 315 NICHOLAS HILL II 52 M PINSON AL 1:02:12 10:02 1:01:20 9:54
51. 519 RICKY NICKOLES 54 M NORTHPORT AL 1:04:04 10:20 1:03:30 10:15
52. 365 ERIC JUROTICH 50 M BIRMINGHAM AL 1:04:15 10:22 1:03:45 10:17
53. 542 JEFF PARMER 52 M MOUNTAIN BROOK AL 1:06:37 10:45 1:05:37 10:35
54. 793 WAYNE WRIGHT 52 M WEST BLOCTON AL 1:08:59 11:08 1:08:39 11:05
55. 450 STUART MCATEE 50 M BIRMINGHAM AL 1:10:05 11:19 1:08:57 11:08
56. 907 JIMMY FORDHAM 54 M BIRMINGHAM AL 1:18:37 12:41 1:17:34 12:31
57. 909 KELLY GARNER 51 M BIRMINGHAM AL RESOLUTE RUNNING COED 1:20:32 13:00 1:19:35 12:51
58. 1035 CLINTON ALVERSON 50 M CANTON GA 1:37:33 15:44 1:36:19 15:33
---------------------------------------------------------------------------
MALE AGE GROUP: 55 - 59
---------------------------------------------------------------------------

Place Bib NAME Age Sex CITY/STATE TeamName GunTime GunPace TagTime TagPace
1. 504 KIRK MUELLER 55 M BIRMINGHAM AL CADENCE MEN 42:00 6:47 41:56 6:46
2. 446 SIDNEY MAYS 55 M VESTAVIA AL 43:54 7:05 43:50 7:05
3. 316 EDWARD HINTON 56 M BIRMINGHAM AL 45:42 7:23 45:41 7:23
4. 604 KEVIN ROBERSON 55 M MOUNT OLIVE AL 46:54 7:34 46:50 7:34
5. 1040 PERRY ANDERSON 55 M ODENVILLE AL 48:55 7:54 48:44 7:52
6. 827 NORIYUKI HANASHIRO 58 M BIRMINGHAM AL 49:03 7:55 48:48 7:53
7. 67 RAMOND BANKS 59 M BIRMINGHAM AL 50:04 8:05 49:53 8:03
8. 913 THOMAS HALL 56 M BIRMINGHAM AL 51:17 8:17 50:50 8:12
9. 702 STEVEN THOMPSON 56 M MOUNTAIN BROOK AL 51:58 8:23 51:30 8:19
10. 1089 GARY HOWELL 57 M FULTONDALE AL 52:15 8:26 51:48 8:22
11. 571 GREG POOLE 56 M BIRMINGHAM AL 52:20 8:27 52:12 8:25
12. 667 JAMES SMITH 57 M BIRMINGHAM AL 53:00 8:33 52:52 8:32
13. 821 THOMAS FLEMING 56 M HAMILTON AL 53:23 8:37 52:11 8:25
14. 997 MARK DUNN 57 M TRUSSVILLE AL 54:26 8:47 53:56 8:42
15. 952 WAYNE NORRIS 59 M BIRMINGHAM AL 55:25 8:57 55:14 8:55
16. 325 MIKE HOOD 58 M SPRINGVILLE AL 56:08 9:04 56:05 9:03
17. 556 STEVE PENLEY 57 M CLANTON AL 57:32 9:17 57:11 9:14
18. 782 ARLYNN WILSON 57 M HUNTSVILLE AL 57:37 9:18 56:47 9:10
19. 580 STEVEN PURDY 57 M TRUSSVILLET AL 57:42 9:19 57:20 9:15
20. 119 JEFF BURBANK 55 M MAYLENE AL 58:23 9:25 58:08 9:23
21. 514 ANDREW NEIGEL 57 M ATHABASCA CA 58:35 9:27 58:14 9:24
22. 653 ROBERT SIMS 59 M HOMEWOOD AL 58:43 9:29 58:06 9:23
23. 512 MARK MYERS 59 M BIRMINGHAM AL 59:15 9:34 58:36 9:28
24. 1060 RAY CARTER 57 M SHANNON AL 59:38 9:37 59:27 9:36
25. 839 RAMZI MALEK 55 M ONEONTA AL 1:00:02 9:41 59:11 9:33
26. 717 RICHARD TURNBULL 56 M BIRMINGHAM AL 1:00:19 9:44 1:00:05 9:42
27. 828 JEFFREY HERLE 56 M BIRMINGHAM AL 1:04:01 10:20 1:03:08 10:11
28. 1057 DOUG ALLEN 59 M BIRMINGHAM AL 1:04:54 10:29 1:04:15 10:22
29. 962 BUDDY SMITH 57 M HOMEWOOD AL 1:06:09 10:40 1:05:42 10:36
30. 351 MIKE JENKINS 55 M BIRMINGHAM AL 1:08:59 11:08 1:08:01 10:59
31. 362 GORMAN JONES 57 M BIRMINGHAM AL 1:12:34 11:43 1:11:44 11:35
32. 344 RUSSELL HYDE 55 M BIRMINGHAM AL 1:15:46 12:14 1:15:05 12:07
33. 269 GREG GRAHAM 58 M HOMEWOOD AL 1:36:09 15:31 1:35:29 15:24
34. 797 XING WU 57 M HOOVER AL 1:56:49 18:51 1:55:29 18:38
---------------------------------------------------------------------------
MALE AGE GROUP: 60 - 64
---------------------------------------------------------------------------

Place Bib NAME Age Sex CITY/STATE TeamName GunTime GunPace TagTime TagPace
1. 135 BRYAN CHACE 60 M BIRMINGHAM AL 53:43 8:40 53:34 8:39
2. 995 KENNETH FORTSON 61 M BIRMINGHAM AL 53:48 8:41 53:41 8:40
3. 877 TONY BLAKENEY 60 M BIRMINGHAM AL 53:49 8:41 53:10 8:35
4. 91 EKKEHARD BONATZ 60 M BIRMINGHAM AL 53:56 8:42 53:41 8:40
5. 106 JAMES BROOME 63 M BIRMINGHAM AL 56:45 9:10 55:59 9:02
6. 856 GORDIE ROBINSON 60 M BIRMINGHAM AL 57:12 9:14 56:19 9:05
7. 741 SAM WARBINGTON 61 M BIRMINGHAM AL 57:20 9:15 57:14 9:14
8. 772 RANDY WILHITE 63 M DORA AL 57:28 9:16 57:16 9:15
9. 654 MIKE SLOANE 60 M BIRMINGHAM AL 57:28 9:17 55:59 9:02
10. 1001 SKIP MATHEWS 60 M TRUSSVILLE AL 58:03 9:22 57:42 9:19
11. 323 RONNY HOLLAWAY 63 M BIRMINGHAM AL 58:18 9:25 57:48 9:20
12. 1007 MIKE BRYAN 62 M MOUNT OLIVE AL 58:54 9:30 58:40 9:28
13. 406 DEAN LEADER 64 M BIRMINGHAM AL 59:05 9:32 58:41 9:28
14. 671 GENE SNOW 61 M ALPHARETTA GA 1:00:19 9:44 1:00:01 9:41
15. 95 RICHARD BOTTSFORD 60 M BIRMINGHAM AL 1:01:32 9:56 1:00:57 9:50
16. 108 RICHARD BROOME 62 M BIRMINGHAM AL 1:01:35 9:56 1:00:31 9:46
17. 115 CHARLIE BROWN 61 M BIRMINGHAM AL 1:02:23 10:04 1:01:52 9:59
18. 660 ROWAN SMITH 64 M BIRMINGHAM AL 1:03:29 10:15 1:02:55 10:09
19. 576 PETE PRESTON 60 M MONTGOMERY AL 1:03:46 10:18 1:02:59 10:10
20. 751 JEFF WAYMAN 64 M EAST TEMPLETON MA 1:03:50 10:18 1:02:59 10:10
21. 712 CHRIS TOTH 61 M PELHAM AL 1:04:08 10:21 1:03:53 10:19
22. 569 STEVE PITTS 60 M BIRMINGHAM AL 1:04:23 10:24 1:03:16 10:13
23. 720 LAWRENCE TYSON 63 M BIRMINGHAM AL COUNSELORS ON THE RUN 1:06:33 10:44 1:05:57 10:39
24. 538 RANDALL PALMORE 60 M JASPER AL 1:08:14 11:01 1:08:01 10:59
25. 1046 PHIL MIN 61 M MT OLIVE AL 1:08:17 11:01 1:07:32 10:54
26. 1002 HARRIS ED 62 M TRUSSVILLE AL 1:09:59 11:18 1:09:10 11:10
27. 961 MICHAEL ROUTMAN 62 M BIRMINGHAM AL 1:14:09 11:58 1:13:19 11:50
28. 122 JIM BYRD 61 M BIRMINGHAM AL 1:16:21 12:19 1:15:29 12:11
29. 936 SAM LOCHAMY 62 M PELHAM AL 1:25:28 13:47 1:24:23 13:37
30. 763 GREG WEYANDT 64 M BIRMINGHAM AL 1:26:28 13:57 1:25:17 13:46
31. 321 CARL GIBSON HOLLADAY 60 M PELL CITY AL 1:36:08 15:31 1:35:26 15:24
---------------------------------------------------------------------------
MALE AGE GROUP: 65 - 69
---------------------------------------------------------------------------

Place Bib NAME Age Sex CITY/STATE TeamName GunTime GunPace TagTime TagPace
1. 497 MICHAEL MORRISSEY 65 M BIRMINGHAM AL 55:35 8:58 54:50 8:51
2. 881 CHARLES BROWNING 68 M PELL CITY AL 56:51 9:11 56:37 9:08
3. 647 RONALD SHINN 67 M BIRMINGHAM AL 59:59 9:41 59:36 9:37
4. 55 THOMAS ARMSTRONG 65 M BIRMINGHAM AL 1:01:33 9:56 1:01:17 9:54
5. 1082 LARRY JOHNSON 65 M VESTAVIA AL 1:02:06 10:01 1:01:28 9:55
6. 674 ALAN STAMM 67 M BIRMINGHAM AL 1:04:59 10:29 1:04:37 10:26
7. 851 GREGORY PENCE 68 M BIRMINGHAM AL 1:06:15 10:41 1:05:02 10:30
8. 535 BRAM O'STEEN 68 M MUSCLE SHOALS AL 1:06:50 10:47 1:06:11 10:41
9. 346 JAMES JACKSON 69 M VESTAVIA AL 1:12:16 11:40 1:10:53 11:26
10. 1039 LES BAILEY 66 M BIRMINGHAM AL 1:16:31 12:21 1:15:29 12:11
11. 412 ROBERT LENOIR 65 M BIRMINGHAM AL 1:18:29 12:40 1:17:53 12:34
12. 1043 TOM SMOTHERS 65 M CHELSEA AL 1:24:54 13:42 1:24:23 13:37
13. 469 LARRY MEANS 69 M ATTALLA AL 1:26:46 14:00 1:26:21 13:56
---------------------------------------------------------------------------
MALE AGE GROUP: 70 - 98
---------------------------------------------------------------------------

Place Bib NAME Age Sex CITY/STATE TeamName GunTime GunPace TagTime TagPace
1. 531 BEN ONI 71 M AUBURN AL 58:06 9:23 57:41 9:19
2. 301 TED HEGENBARTH 75 M GADSDEN AL 1:03:40 10:17 1:03:22 10:14
3. 735 FRED WALBURN 73 M LIVINGSTON AL 1:07:16 10:51 1:06:47 10:47
4. 1003 WILLI EWERS 75 M BIRMINGHAM AL 1:11:28 11:32 1:11:19 11:31
5. 492 DEWAYNE MORRIS 85 M BIRMINGHAM AL 1:27:39 14:09 1:26:46 14:00
6. 722 BILL UHRIG 73 M BIRMINGHAM AL 1:44:31 16:52 1:43:43 16:44
---------------------------------------------------------------------------
MALE no age given AGE GROUP: 99 - 99 (** NONE **)
---------------------------------------------------------------------------